createdAt,value
2019-04-23T00:00:07.549Z,56.38
2019-04-23T00:01:14.796Z,56.57
2019-04-23T00:02:04.217Z,56.47
2019-04-23T00:03:08.283Z,56.67
2019-04-23T00:04:08.549Z,56.38
2019-04-23T00:05:08.256Z,56.38
2019-04-23T00:06:16.995Z,56.85
2019-04-23T00:07:15.844Z,56.85
2019-04-23T00:08:09.667Z,57.04
2019-04-23T00:09:12.530Z,57.24
2019-04-23T00:10:12.731Z,57.31
2019-04-23T00:12:14.697Z,56.76
2019-04-23T00:13:05.693Z,56.67
2019-04-23T00:14:15.172Z,57.04
2019-04-23T00:15:13.484Z,56.76
2019-04-23T00:16:27.771Z,57.24
2019-04-23T00:17:05.855Z,57.43
2019-04-23T00:18:12.502Z,57.31
2019-04-23T00:19:03.206Z,57.21
2019-04-23T00:20:09.896Z,57.31
2019-04-23T00:21:13.847Z,57.24
2019-04-23T00:22:05.592Z,57.31
2019-04-23T00:24:21.315Z,57.50
2019-04-23T00:26:08.064Z,57.43
2019-04-23T00:27:22.582Z,57.21
2019-04-23T00:28:16.411Z,57.31
2019-04-23T00:29:11.855Z,57.87
2019-04-23T00:30:10.385Z,57.40
2019-04-23T00:31:13.427Z,57.59
2019-04-23T00:32:08.154Z,57.87
2019-04-23T00:33:15.438Z,57.97
2019-04-23T00:34:10.804Z,57.78
2019-04-23T00:35:05.953Z,58.07
2019-04-23T00:36:17.567Z,58.16
2019-04-23T00:37:13.006Z,58.07
2019-04-23T00:38:13.924Z,58.26
2019-04-23T00:39:11.671Z,58.36
2019-04-23T00:40:02.655Z,58.36
2019-04-23T00:41:11.278Z,58.64
2019-04-23T00:42:10.310Z,58.73
2019-04-23T00:43:11.897Z,58.45
2019-04-23T00:44:06.405Z,58.93
2019-04-23T00:45:12.267Z,59.22
2019-04-23T00:46:12.714Z,59.22
2019-04-23T00:47:08.928Z,58.93
2019-04-23T00:48:15.146Z,58.93
2019-04-23T00:49:18.110Z,58.83
2019-04-23T00:50:12.134Z,59.59
2019-04-23T00:51:03.449Z,59.38
2019-04-23T00:52:14.491Z,59.28
2019-04-23T00:53:15.803Z,59.66
2019-04-23T00:54:12.213Z,59.38
2019-04-23T00:55:10.713Z,60.14
2019-04-23T00:56:30.010Z,59.95
2019-04-23T00:58:12.494Z,60.04
2019-04-23T00:59:08.373Z,59.95
2019-04-23T01:01:26.491Z,60.33
2019-04-23T01:02:13.320Z,60.42
2019-04-23T01:04:07.162Z,60.33
2019-04-23T01:05:11.426Z,60.33
2019-04-23T01:06:16.034Z,60.33
2019-04-23T01:07:12.704Z,60.61
2019-04-23T01:08:13.280Z,60.33
2019-04-23T01:09:10.412Z,60.42
2019-04-23T01:12:21.411Z,60.71
2019-04-23T01:13:14.874Z,60.61
2019-04-23T01:14:08.247Z,60.90
2019-04-23T01:15:10.277Z,61.00
2019-04-23T01:16:11.509Z,61.10
2019-04-23T01:17:19.925Z,60.90
2019-04-23T01:18:10.921Z,60.71
2019-04-23T01:19:12.191Z,60.90
2019-04-23T01:20:10.941Z,61.29
2019-04-23T01:20:54.037Z,61.38
2019-04-23T01:21:49.343Z,61.25
2019-04-23T01:22:48.728Z,61.25
2019-04-23T01:23:54.781Z,61.44
2019-04-23T01:24:48.873Z,61.63
2019-04-23T01:26:00.332Z,61.54
2019-04-23T01:27:23.761Z,61.44
2019-04-23T01:28:15.979Z,61.25
2019-04-23T01:29:14.553Z,61.92
2019-04-23T01:30:15.911Z,61.63
2019-04-23T01:31:16.552Z,62.49
2019-04-23T01:32:17.298Z,62.21
2019-04-23T01:33:21.675Z,62.02
2019-04-23T01:34:21.845Z,62.21
2019-04-23T01:36:21.902Z,62.68
2019-04-23T01:37:19.064Z,62.68
2019-04-23T01:38:11.232Z,62.78
2019-04-23T01:39:15.770Z,62.88
2019-04-23T01:40:31.966Z,62.68
2019-04-23T01:41:17.959Z,62.40
2019-04-23T01:42:24.009Z,62.59
2019-04-23T01:43:16.504Z,63.07
2019-04-23T01:44:15.601Z,63.07
2019-04-23T01:45:20.394Z,63.26
2019-04-23T01:46:16.421Z,63.26
2019-04-23T01:47:20.928Z,63.26
2019-04-23T01:48:13.116Z,63.35
2019-04-23T01:49:18.266Z,63.16
2019-04-23T01:50:37.703Z,63.26
2019-04-23T01:51:08.163Z,63.64
2019-04-23T01:52:18.121Z,63.45
2019-04-23T01:54:22.824Z,63.35
2019-04-23T01:55:18.360Z,63.83
2019-04-23T01:56:14.780Z,63.92
2019-04-23T01:57:16.634Z,64.02
2019-04-23T01:58:37.029Z,64.12
2019-04-23T01:59:21.225Z,63.92
2019-04-23T02:01:05.330Z,63.92
2019-04-23T02:01:58.499Z,63.73
2019-04-23T02:04:03.495Z,63.83
2019-04-23T02:05:02.117Z,63.64
2019-04-23T02:07:04.420Z,64.31
2019-04-23T02:08:58.263Z,64.28
2019-04-23T02:12:01.048Z,64.75
2019-04-23T02:13:08.808Z,64.56
2019-04-23T02:13:55.125Z,64.59
2019-04-23T02:15:03.337Z,64.47
2019-04-23T02:16:15.214Z,65.33
2019-04-23T02:17:04.529Z,65.42
2019-04-23T02:18:06.130Z,65.13
2019-04-23T02:20:01.548Z,64.94
2019-04-23T02:21:10.770Z,65.04
2019-04-23T02:22:05.095Z,65.13
2019-04-23T02:23:04.342Z,65.70
2019-04-23T02:23:55.158Z,65.52
2019-04-23T02:25:02.091Z,65.33
2019-04-23T02:26:01.282Z,65.52
2019-04-23T02:27:00.006Z,65.52
2019-04-23T02:29:03.737Z,65.23
2019-04-23T02:32:02.908Z,65.61
2019-04-23T02:34:13.792Z,65.70
2019-04-23T02:36:02.381Z,65.89
2019-04-23T02:36:59.911Z,65.99
2019-04-23T02:38:09.966Z,65.52
2019-04-23T02:40:23.306Z,65.80
2019-04-23T02:42:19.171Z,65.61
2019-04-23T02:43:15.284Z,66.09
2019-04-23T02:44:13.147Z,66.09
2019-04-23T02:45:06.773Z,65.99
2019-04-23T02:46:05.589Z,65.99
2019-04-23T02:48:11.044Z,66.66
2019-04-23T02:50:29.636Z,66.38
2019-04-23T02:51:03.951Z,66.85
2019-04-23T02:52:11.211Z,66.47
2019-04-23T02:53:27.808Z,66.56
2019-04-23T02:54:12.754Z,66.47
2019-04-23T02:55:10.795Z,66.38
2019-04-23T02:58:10.307Z,66.75
2019-04-23T02:59:10.564Z,66.94
2019-04-23T03:00:18.910Z,66.94
2019-04-23T03:02:15.483Z,66.75
2019-04-23T03:03:29.657Z,67.23
2019-04-23T03:04:09.671Z,67.14
2019-04-23T03:05:00.688Z,67.14
2019-04-23T03:06:07.882Z,67.33
2019-04-23T03:08:02.218Z,67.14
2019-04-23T03:10:55.202Z,66.85
2019-04-23T03:11:54.110Z,67.04
2019-04-23T03:12:46.829Z,67.23
2019-04-23T03:14:49.189Z,67.71
2019-04-23T03:16:53.178Z,67.99
2019-04-23T03:17:57.587Z,67.61
2019-04-23T03:19:07.005Z,67.80
2019-04-23T03:19:47.246Z,67.61
2019-04-23T03:21:01.858Z,67.61
2019-04-23T03:21:52.284Z,67.80
2019-04-23T03:22:58.965Z,67.80
2019-04-23T03:25:05.288Z,67.90
2019-04-23T03:25:45.441Z,67.61
2019-04-23T03:27:40.903Z,68.38
2019-04-23T03:29:55.309Z,67.99
2019-04-23T03:31:41.437Z,68.38
2019-04-23T03:37:50.802Z,68.95
2019-04-23T03:38:48.726Z,69.52
2019-04-23T03:39:56.758Z,69.04
2019-04-23T03:41:02.605Z,69.62
2019-04-23T03:42:53.862Z,69.52
2019-04-23T03:46:04.292Z,70.09
2019-04-23T03:46:41.776Z,69.90
2019-04-23T03:48:06.005Z,70.00
2019-04-23T03:48:57.395Z,69.81
2019-04-23T03:49:55.378Z,70.19
2019-04-23T03:51:56.789Z,70.57
2019-04-23T03:54:21.903Z,70.19
2019-04-23T03:54:44.891Z,70.47
2019-04-23T03:55:54.564Z,70.67
2019-04-23T03:57:45.190Z,70.76
2019-04-23T03:59:58.881Z,70.95
2019-04-23T04:01:07.634Z,70.76
2019-04-23T04:03:00.791Z,71.23
2019-04-23T04:04:22.987Z,71.33
2019-04-23T04:04:45.298Z,71.43
2019-04-23T04:08:02.340Z,71.58
2019-04-23T04:09:00.824Z,71.72
2019-04-23T04:09:47.811Z,71.72
2019-04-23T04:11:04.362Z,71.87
2019-04-23T04:11:52.242Z,72.06
2019-04-23T04:14:56.704Z,71.87
2019-04-23T04:15:55.395Z,72.06
2019-04-23T04:16:51.629Z,72.09
2019-04-23T04:18:04.021Z,71.87
2019-04-23T04:19:56.317Z,71.77
2019-04-23T04:21:01.164Z,71.77
2019-04-23T04:22:04.773Z,71.77
2019-04-23T04:23:00.399Z,72.06
2019-04-23T04:23:57.713Z,72.34
2019-04-23T04:27:01.818Z,72.25
2019-04-23T04:28:01.003Z,72.25
2019-04-23T04:28:51.071Z,72.63
2019-04-23T04:29:51.874Z,72.53
2019-04-23T04:30:49.532Z,72.72
2019-04-23T04:31:54.805Z,72.72
2019-04-23T04:35:48.771Z,72.72
2019-04-23T04:37:16.814Z,72.92
2019-04-23T04:38:54.840Z,73.11
2019-04-23T04:40:11.142Z,73.11
2019-04-23T04:40:56.569Z,72.92
2019-04-23T04:41:58.866Z,73.21
2019-04-23T04:43:11.256Z,73.01
2019-04-23T04:46:05.412Z,73.01
2019-04-23T04:46:49.877Z,73.01
2019-04-23T04:51:10.810Z,73.49
2019-04-23T04:52:00.546Z,73.30
2019-04-23T04:53:16.757Z,73.11
2019-04-23T04:54:12.663Z,73.43
2019-04-23T04:54:44.379Z,73.58
2019-04-23T04:56:03.101Z,73.87
2019-04-23T04:56:58.064Z,73.77
2019-04-23T04:58:58.477Z,74.10
2019-04-23T05:03:10.700Z,73.81
2019-04-23T05:03:40.957Z,73.81
2019-04-23T05:04:59.735Z,73.62
2019-04-23T05:07:02.199Z,74.29
2019-04-23T05:07:47.414Z,74.38
2019-04-23T05:08:54.383Z,74.01
2019-04-23T05:09:55.185Z,74.10
2019-04-23T05:11:05.406Z,74.01
2019-04-23T05:12:01.628Z,74.29
2019-04-23T05:12:52.539Z,74.10
2019-04-23T05:13:57.773Z,74.19
2019-04-23T05:15:03.238Z,73.72
2019-04-23T05:16:50.694Z,74.10
2019-04-23T05:19:51.140Z,74.10
2019-04-23T05:20:56.372Z,73.81
2019-04-23T05:21:55.704Z,73.91
2019-04-23T05:23:00.155Z,73.91
2019-04-23T05:23:50.467Z,73.72
2019-04-23T05:24:46.515Z,74.48
2019-04-23T05:25:44.966Z,74.48
2019-04-23T05:26:42.526Z,74.38
2019-04-23T05:27:58.899Z,74.38
2019-04-23T05:28:55.487Z,74.29
2019-04-23T05:29:46.226Z,74.19
2019-04-23T05:30:52.018Z,74.38
2019-04-23T05:31:42.678Z,74.48
2019-04-23T05:32:54.397Z,74.38
2019-04-23T05:33:46.417Z,74.86
2019-04-23T05:34:46.711Z,74.48
2019-04-23T05:36:06.201Z,74.96
2019-04-23T05:36:52.049Z,74.67
2019-04-23T05:38:02.450Z,74.48
2019-04-23T05:39:45.424Z,74.29
2019-04-23T05:41:50.056Z,74.61
2019-04-23T05:42:50.375Z,74.42
2019-04-23T05:43:46.752Z,74.29
2019-04-23T05:45:53.109Z,74.42
2019-04-23T05:46:56.370Z,74.71
2019-04-23T05:47:56.754Z,74.71
2019-04-23T05:48:52.832Z,74.71
2019-04-23T05:50:59.236Z,74.52
2019-04-23T05:51:54.296Z,74.32
2019-04-23T05:53:45.075Z,74.32
2019-04-23T05:54:54.796Z,74.42
2019-04-23T05:55:49.293Z,73.85
2019-04-23T05:56:49.476Z,74.13
2019-04-23T05:57:42.700Z,74.13
2019-04-23T05:58:52.679Z,73.56
2019-04-23T05:59:48.543Z,73.56
2019-04-23T06:01:54.283Z,73.85
2019-04-23T06:02:59.290Z,73.69
2019-04-23T06:03:48.985Z,73.98
2019-04-23T06:05:05.960Z,73.32
2019-04-23T06:07:04.747Z,73.12
2019-04-23T06:07:49.775Z,73.12
2019-04-23T06:08:47.540Z,72.87
2019-04-23T06:09:50.002Z,72.11
2019-04-23T06:10:47.855Z,70.61
2019-04-23T06:12:45.307Z,69.47
2019-04-23T06:13:58.750Z,69.91
2019-04-23T06:15:49.249Z,71.15
2019-04-23T06:17:03.741Z,71.44
2019-04-23T06:17:46.281Z,71.44
2019-04-23T06:19:55.131Z,71.53
2019-04-23T06:20:55.594Z,71.53
2019-04-23T06:22:04.444Z,71.00
2019-04-23T06:23:06.030Z,69.60
2019-04-23T06:24:46.733Z,67.24
2019-04-23T06:25:57.263Z,66.19
2019-04-23T06:27:48.254Z,65.11
2019-04-23T06:28:56.234Z,64.15
2019-04-23T06:29:46.521Z,63.32
2019-04-23T06:31:50.824Z,63.03
2019-04-23T06:32:44.478Z,62.07
2019-04-23T06:33:46.358Z,61.91
2019-04-23T06:34:47.180Z,61.50
2019-04-23T06:35:54.980Z,61.40
2019-04-23T06:38:23.017Z,61.34
2019-04-23T06:38:54.473Z,61.15
2019-04-23T06:39:53.920Z,60.38
2019-04-23T06:40:51.931Z,60.28
2019-04-23T06:41:53.050Z,60.47
2019-04-23T06:42:42.896Z,60.38
2019-04-23T06:43:56.359Z,60.57
2019-04-23T06:44:51.075Z,60.09
2019-04-23T06:45:45.609Z,59.83
2019-04-23T06:46:54.902Z,59.06
2019-04-23T06:47:42.958Z,58.81
2019-04-23T06:48:47.625Z,57.75
2019-04-23T06:49:54.541Z,57.95
2019-04-23T06:50:50.874Z,57.56
2019-04-23T06:51:55.144Z,57.40
2019-04-23T06:52:45.521Z,57.56
2019-04-23T06:53:43.715Z,57.50
2019-04-23T06:54:56.452Z,57.56
2019-04-23T06:55:49.597Z,57.95
2019-04-23T06:57:02.210Z,57.95
2019-04-23T06:57:47.799Z,57.40
2019-04-23T06:59:06.133Z,57.75
2019-04-23T06:59:52.545Z,57.68
2019-04-23T07:00:51.300Z,57.88
2019-04-23T07:01:54.454Z,57.30
2019-04-23T07:03:11.166Z,56.63
2019-04-23T07:03:50.369Z,56.56
2019-04-23T07:04:58.670Z,75.56
2019-04-23T07:05:59.173Z,74.44
2019-04-23T07:06:58.305Z,70.31
2019-04-23T07:08:02.887Z,62.45
2019-04-23T07:09:05.178Z,59.84
2019-04-23T07:09:44.039Z,57.82
2019-04-23T07:10:54.359Z,54.06
2019-04-23T07:12:50.825Z,53.33
2019-04-23T07:14:53.042Z,56.25
2019-04-23T07:16:03.177Z,58.20
2019-04-23T07:16:46.500Z,57.56
2019-04-23T07:17:50.033Z,54.50
2019-04-23T07:18:46.958Z,55.08
2019-04-23T07:20:51.543Z,53.17
2019-04-23T07:21:51.174Z,50.04
2019-04-23T07:22:56.774Z,51.17
2019-04-23T07:24:06.420Z,53.22
2019-04-23T07:24:49.112Z,53.41
2019-04-23T07:26:03.754Z,51.77
2019-04-23T07:26:42.257Z,49.91
2019-04-23T07:27:49.352Z,50.83
2019-04-23T07:29:58.891Z,52.54
2019-04-23T07:30:49.671Z,52.54
2019-04-23T07:32:52.582Z,52.32
2019-04-23T07:34:57.403Z,52.20
2019-04-23T07:35:57.767Z,52.77
2019-04-23T07:36:47.833Z,52.51
2019-04-23T07:37:57.110Z,52.42
2019-04-23T07:39:58.898Z,52.06
2019-04-23T07:40:46.661Z,52.12
2019-04-23T07:41:58.836Z,52.68
2019-04-23T07:42:41.975Z,53.45
2019-04-23T07:43:54.482Z,53.92
2019-04-23T07:45:51.701Z,53.80
2019-04-23T07:47:03.334Z,54.22
2019-04-23T07:47:55.831Z,53.92
2019-04-23T07:48:47.684Z,54.28
2019-04-23T07:50:04.911Z,53.92
2019-04-23T07:50:48.033Z,53.45
2019-04-23T07:51:55.135Z,53.16
2019-04-23T07:53:01.826Z,53.45
2019-04-23T07:53:53.542Z,53.35
2019-04-23T07:54:54.424Z,53.47
2019-04-23T07:56:55.353Z,52.89
2019-04-23T07:57:58.291Z,52.03
2019-04-23T07:58:44.653Z,51.76
2019-04-23T07:59:56.885Z,51.41
2019-04-23T08:01:49.568Z,51.45
2019-04-23T08:02:57.859Z,51.76
2019-04-23T08:03:57.387Z,51.86
2019-04-23T08:05:05.992Z,51.31
2019-04-23T08:05:42.476Z,50.63
2019-04-23T08:06:52.406Z,49.99
2019-04-23T08:07:52.496Z,50.25
2019-04-23T08:08:52.678Z,49.87
2019-04-23T08:09:55.858Z,50.45
2019-04-23T08:11:17.947Z,50.73
2019-04-23T08:11:52.408Z,50.63
2019-04-23T08:12:50.617Z,50.09
2019-04-23T08:13:57.014Z,50.09
2019-04-23T08:14:53.468Z,49.79
2019-04-23T08:16:21.830Z,49.34
2019-04-23T08:17:04.276Z,48.83
2019-04-23T08:17:51.125Z,49.38
2019-04-23T08:18:53.726Z,50.93
2019-04-23T08:19:56.132Z,50.93
2019-04-23T08:20:55.653Z,51.21
2019-04-23T08:22:05.064Z,50.73
2019-04-23T08:22:53.801Z,50.25
2019-04-23T08:23:55.452Z,49.96
2019-04-23T08:24:58.894Z,49.79
2019-04-23T08:26:03.184Z,49.43
2019-04-23T08:27:02.711Z,49.34
2019-04-23T08:27:48.526Z,49.15
2019-04-23T08:29:45.829Z,49.82
2019-04-23T08:30:52.776Z,49.24
2019-04-23T08:32:00.588Z,49.43
2019-04-23T08:32:54.259Z,49.17
2019-04-23T08:33:56.942Z,49.15
2019-04-23T08:35:58.997Z,48.79
2019-04-23T08:36:58.313Z,48.13
2019-04-23T08:38:00.929Z,47.09
2019-04-23T08:38:55.498Z,47.45
2019-04-23T08:39:46.470Z,46.81
2019-04-23T08:41:06.160Z,46.90
2019-04-23T08:43:00.666Z,46.71
2019-04-23T08:44:19.430Z,46.78
2019-04-23T08:45:07.491Z,46.49
2019-04-23T08:45:52.512Z,46.71
2019-04-23T08:47:05.363Z,46.97
2019-04-23T08:47:54.648Z,47.17
2019-04-23T08:49:01.218Z,47.36
2019-04-23T08:50:09.215Z,47.94
2019-04-23T08:50:50.853Z,46.81
2019-04-23T08:52:03.735Z,47.34
2019-04-23T08:52:58.637Z,47.65
2019-04-23T08:54:21.911Z,47.36
2019-04-23T08:54:54.816Z,47.75
2019-04-23T08:55:58.768Z,46.71
2019-04-23T08:56:54.779Z,46.51
2019-04-23T08:57:47.044Z,46.33
2019-04-23T08:58:47.445Z,46.59
2019-04-23T09:00:05.990Z,46.59
2019-04-23T09:01:00.595Z,46.88
2019-04-23T09:02:07.777Z,46.61
2019-04-23T09:03:14.633Z,46.13
2019-04-23T09:03:47.802Z,47.45
2019-04-23T09:04:54.249Z,46.81
2019-04-23T09:06:53.422Z,46.83
2019-04-23T09:13:57.413Z,45.96
2019-04-23T09:15:05.210Z,45.59
2019-04-23T09:16:58.299Z,45.57
2019-04-23T09:17:57.386Z,45.11
2019-04-23T09:18:53.023Z,44.90
2019-04-23T09:20:48.132Z,45.09
2019-04-23T09:22:04.111Z,45.67
2019-04-23T09:22:53.032Z,45.38
2019-04-23T09:23:54.486Z,45.11
2019-04-23T09:24:55.828Z,45.48
2019-04-23T09:26:05.527Z,45.48
2019-04-23T09:26:58.660Z,45.55
2019-04-23T09:27:52.715Z,45.48
2019-04-23T09:29:00.072Z,45.65
2019-04-23T09:30:58.954Z,45.96
2019-04-23T09:32:52.062Z,45.57
2019-04-23T09:35:02.347Z,44.84
2019-04-23T09:35:52.520Z,43.80
2019-04-23T09:37:00.135Z,43.82
2019-04-23T09:42:04.034Z,43.99
2019-04-23T09:44:03.291Z,42.66
2019-04-23T09:47:10.693Z,42.79
2019-04-23T09:48:01.951Z,44.07
2019-04-23T09:49:06.349Z,43.73
2019-04-23T09:50:08.205Z,43.80
2019-04-23T09:51:06.192Z,43.71
2019-04-23T09:52:11.285Z,43.82
2019-04-23T09:53:09.770Z,42.78
2019-04-23T10:07:19.253Z,42.68
2019-04-23T10:08:15.275Z,42.71
2019-04-23T10:09:06.729Z,42.28
2019-04-23T10:10:03.563Z,43.73
2019-04-23T10:11:03.236Z,43.27
2019-04-23T10:12:05.026Z,42.76
2019-04-23T10:13:04.275Z,42.49
2019-04-23T10:14:03.344Z,42.03
2019-04-23T10:15:10.940Z,41.62
2019-04-23T10:16:04.441Z,42.20
2019-04-23T10:17:04.293Z,42.78
2019-04-23T10:18:04.618Z,42.49
2019-04-23T10:19:03.802Z,41.93
2019-04-23T10:20:04.614Z,42.10
2019-04-23T10:21:03.596Z,42.47
2019-04-23T10:22:04.924Z,43.59
2019-04-23T10:23:04.200Z,43.61
2019-04-23T10:24:05.303Z,43.99
2019-04-23T10:25:03.747Z,43.82
2019-04-23T10:26:03.957Z,42.71
2019-04-23T10:27:04.308Z,42.41
2019-04-23T10:28:08.506Z,42.49
2019-04-23T10:29:05.407Z,42.66
2019-04-23T10:30:04.140Z,43.05
2019-04-23T10:31:04.903Z,42.88
2019-04-23T10:32:03.997Z,42.71
2019-04-23T10:33:05.441Z,42.00
2019-04-23T10:34:04.489Z,42.10
2019-04-23T10:35:14.684Z,42.59
2019-04-23T10:36:09.394Z,41.64
2019-04-23T10:37:05.153Z,41.66
2019-04-23T10:38:10.032Z,40.81
2019-04-23T10:39:11.585Z,40.89
2019-04-23T10:40:08.038Z,41.08
2019-04-23T10:41:04.573Z,41.00
2019-04-23T10:42:05.627Z,40.92
2019-04-23T10:43:05.436Z,40.54
2019-04-23T10:44:04.957Z,40.05
2019-04-23T10:45:22.598Z,39.84
2019-04-23T10:46:27.989Z,39.84
2019-04-23T10:47:35.473Z,39.94
2019-04-23T10:48:41.477Z,39.84
2019-04-23T10:49:48.987Z,40.33
2019-04-23T10:50:40.620Z,40.52
2019-04-23T10:51:34.011Z,40.50
2019-04-23T10:52:30.811Z,40.91
2019-04-23T10:53:43.029Z,40.99
2019-04-23T10:55:42.331Z,40.61
2019-04-23T10:57:25.080Z,40.52
2019-04-23T10:59:35.020Z,41.72
2019-04-23T11:00:32.270Z,42.49
2019-04-23T11:01:35.833Z,42.49
2019-04-23T11:04:53.416Z,42.59
2019-04-23T11:05:42.924Z,42.68
2019-04-23T11:06:44.344Z,42.20
2019-04-23T11:08:36.152Z,41.83
2019-04-23T11:10:26.287Z,41.86
2019-04-23T11:11:34.476Z,41.08
2019-04-23T11:12:42.145Z,41.08
2019-04-23T11:15:11.191Z,40.79
2019-04-23T11:15:47.291Z,40.91
2019-04-23T11:17:39.907Z,40.34
2019-04-23T11:18:45.237Z,40.52
2019-04-23T11:19:43.959Z,40.52
2019-04-23T11:20:35.309Z,40.34
2019-04-23T11:21:38.482Z,40.03
2019-04-23T11:23:37.290Z,40.91
2019-04-23T11:24:48.911Z,40.91
2019-04-23T11:25:41.434Z,40.81
2019-04-23T11:26:37.093Z,40.81
2019-04-23T11:27:35.045Z,41.08
2019-04-23T11:28:33.322Z,40.89
2019-04-23T11:29:38.656Z,40.99
2019-04-23T11:31:41.344Z,40.91
2019-04-23T11:32:46.858Z,40.42
2019-04-23T11:33:37.874Z,39.86
2019-04-23T11:34:57.337Z,40.03
2019-04-23T11:36:01.450Z,40.71
2019-04-23T11:37:47.946Z,39.67
2019-04-23T11:38:56.049Z,40.05
2019-04-23T11:39:37.421Z,40.23
2019-04-23T11:40:32.797Z,40.71
2019-04-23T11:41:41.935Z,40.61
2019-04-23T11:42:41.294Z,42.10
2019-04-23T11:43:33.053Z,42.78
2019-04-23T11:44:41.627Z,42.14
2019-04-23T11:46:46.234Z,41.66
2019-04-23T11:48:14.708Z,41.20
2019-04-23T11:49:04.625Z,40.71
2019-04-23T11:50:56.016Z,42.05
2019-04-23T11:51:07.845Z,40.25
2019-04-23T11:52:41.562Z,39.88
2019-04-23T11:55:44.959Z,38.73
2019-04-23T11:57:14.985Z,39.03
2019-04-23T11:57:41.210Z,38.56
2019-04-23T11:58:36.138Z,38.48
2019-04-23T12:00:44.710Z,39.03
2019-04-23T12:02:40.302Z,38.64
2019-04-23T12:03:47.086Z,39.39
2019-04-23T12:04:55.956Z,39.49
2019-04-23T12:05:41.281Z,39.69
2019-04-23T12:06:31.314Z,40.34
2019-04-23T12:07:37.591Z,40.08
2019-04-23T12:08:41.423Z,39.70
2019-04-23T12:09:41.549Z,39.69
2019-04-23T12:10:54.349Z,39.12
2019-04-23T12:12:33.348Z,40.05
2019-04-23T12:13:56.642Z,39.95
2019-04-23T12:14:47.266Z,39.95
2019-04-23T12:16:49.146Z,40.54
2019-04-23T12:17:38.126Z,40.34
2019-04-23T12:21:43.999Z,41.78
2019-04-23T12:22:43.514Z,40.92
2019-04-23T12:25:51.602Z,40.91
2019-04-23T12:27:39.121Z,41.00
2019-04-23T12:28:40.820Z,40.54
2019-04-23T12:30:39.439Z,41.02
2019-04-23T12:31:37.904Z,40.92
2019-04-23T12:33:43.977Z,40.92
2019-04-23T12:34:47.538Z,40.71
2019-04-23T12:35:45.483Z,41.20
2019-04-23T12:36:44.128Z,41.00
2019-04-23T12:37:41.276Z,41.00
2019-04-23T12:38:33.115Z,40.81
2019-04-23T12:39:41.953Z,40.56
2019-04-23T12:40:38.278Z,40.83
2019-04-23T12:41:40.235Z,40.56
2019-04-23T12:43:33.273Z,40.19
2019-04-23T12:44:38.993Z,40.09
2019-04-23T12:46:57.528Z,40.17
2019-04-23T12:48:52.800Z,40.00
2019-04-23T12:51:45.198Z,38.48
2019-04-23T12:52:41.222Z,38.54
2019-04-23T12:53:33.616Z,39.32
2019-04-23T12:54:51.597Z,40.34
2019-04-23T12:56:49.111Z,40.91
2019-04-23T12:58:29.250Z,41.00
2019-04-23T12:59:36.650Z,41.22
2019-04-23T13:01:42.485Z,41.89
2019-04-23T13:02:46.753Z,41.80
2019-04-23T13:03:35.788Z,41.02
2019-04-23T13:04:42.226Z,40.91
2019-04-23T13:05:33.934Z,41.37
2019-04-23T13:06:40.724Z,41.66
2019-04-23T13:08:47.945Z,42.10
2019-04-23T13:10:32.342Z,43.75
2019-04-23T13:11:49.985Z,43.21
2019-04-23T13:12:42.945Z,41.97
2019-04-23T13:13:48.719Z,41.12
2019-04-23T13:14:45.485Z,40.54
2019-04-23T13:16:44.063Z,40.15
2019-04-23T13:17:44.479Z,40.05
2019-04-23T13:18:40.740Z,40.42
2019-04-23T13:20:36.854Z,40.34
2019-04-23T13:22:48.903Z,40.81
2019-04-23T13:23:34.558Z,40.92
2019-04-23T13:24:43.788Z,41.08
2019-04-23T13:25:41.954Z,41.10
2019-04-23T13:26:35.890Z,41.66
2019-04-23T13:27:51.582Z,41.27
2019-04-23T13:28:40.519Z,42.71
2019-04-23T13:29:47.529Z,42.49
2019-04-23T13:30:46.647Z,42.41
2019-04-23T13:31:36.320Z,42.80
2019-04-23T13:32:46.094Z,43.44
2019-04-23T13:34:45.892Z,44.02
2019-04-23T13:36:37.336Z,43.87
2019-04-23T13:37:42.845Z,43.65
2019-04-23T13:39:39.620Z,45.04
2019-04-23T13:40:46.455Z,44.57
2019-04-23T13:41:40.544Z,44.67
2019-04-23T13:44:42.673Z,45.59
2019-04-23T13:46:01.549Z,45.40
2019-04-23T13:46:34.461Z,46.06
2019-04-23T13:47:47.310Z,46.81
2019-04-23T13:48:30.109Z,48.16
2019-04-23T13:49:43.129Z,47.67
2019-04-23T13:50:50.046Z,47.38
2019-04-23T13:51:57.273Z,47.58
2019-04-23T13:53:50.332Z,48.06
2019-04-23T13:55:35.966Z,48.06
2019-04-23T13:58:59.905Z,46.88
2019-04-23T14:01:43.027Z,47.77
2019-04-23T14:04:45.122Z,48.33
2019-04-23T14:09:45.457Z,48.28
2019-04-23T14:10:43.493Z,47.80
2019-04-23T14:11:34.279Z,47.70
2019-04-23T14:13:03.661Z,47.70
2019-04-23T14:14:47.854Z,48.28
2019-04-23T14:15:46.246Z,48.18
2019-04-23T14:18:58.420Z,50.67
2019-04-23T14:19:35.021Z,51.15
2019-04-23T14:20:40.457Z,49.90
2019-04-23T14:21:36.983Z,49.68
2019-04-23T14:23:59.677Z,50.18
2019-04-23T14:25:02.066Z,49.51
2019-04-23T14:25:52.021Z,51.25
2019-04-23T14:27:49.470Z,49.53
2019-04-23T14:29:52.231Z,49.80
2019-04-23T14:30:46.789Z,49.29
2019-04-23T14:33:50.634Z,49.48
2019-04-23T14:34:43.536Z,49.77
2019-04-23T14:35:56.450Z,49.87
2019-04-23T14:36:43.166Z,50.93
2019-04-23T14:37:59.078Z,50.16
2019-04-23T14:38:40.065Z,50.35
2019-04-23T14:39:45.806Z,51.20
2019-04-23T14:40:54.169Z,51.00
2019-04-23T14:42:03.684Z,51.39
2019-04-23T14:44:41.072Z,50.16
2019-04-23T14:46:02.535Z,50.06
2019-04-23T14:46:50.188Z,50.06
2019-04-23T14:48:05.851Z,50.16
2019-04-23T14:48:46.434Z,50.26
2019-04-23T14:50:09.299Z,50.45
2019-04-23T14:50:41.290Z,49.68
2019-04-23T14:51:44.085Z,49.48
2019-04-23T14:52:50.333Z,49.77
2019-04-23T14:53:40.525Z,50.06
2019-04-23T14:55:19.873Z,50.16
2019-04-23T14:55:58.266Z,50.26
2019-04-23T14:56:44.780Z,50.74
2019-04-23T14:57:55.779Z,50.93
2019-04-23T14:58:51.102Z,50.64
2019-04-23T14:59:41.822Z,50.74
2019-04-23T15:01:44.854Z,50.74
2019-04-23T15:02:46.429Z,49.87
2019-04-23T15:03:52.077Z,50.35
2019-04-23T15:04:48.229Z,50.74
2019-04-23T15:05:45.835Z,50.93
2019-04-23T15:06:46.715Z,50.93
2019-04-23T15:07:42.475Z,50.93
2019-04-23T15:09:53.216Z,51.32
2019-04-23T15:11:52.750Z,50.76
2019-04-23T15:12:46.260Z,50.86
2019-04-23T15:13:45.687Z,50.38
2019-04-23T15:14:54.437Z,50.47
2019-04-23T15:15:45.965Z,50.38
2019-04-23T15:16:44.959Z,50.28
2019-04-23T15:17:47.237Z,50.57
2019-04-23T15:18:53.353Z,51.41
2019-04-23T15:19:53.049Z,51.05
2019-04-23T15:20:55.878Z,51.25
2019-04-23T15:22:50.579Z,51.44
2019-04-23T15:23:55.204Z,50.67
2019-04-23T15:24:54.625Z,51.32
2019-04-23T15:28:06.031Z,51.80
2019-04-23T15:28:17.750Z,51.70
2019-04-23T15:29:30.201Z,51.63
2019-04-23T15:30:47.358Z,51.92
2019-04-23T15:33:58.965Z,51.99
2019-04-23T15:34:40.389Z,51.82
2019-04-23T15:35:57.653Z,52.21
2019-04-23T15:38:00.501Z,52.21
2019-04-23T15:39:47.834Z,51.82
2019-04-23T15:40:41.769Z,51.73
2019-04-23T15:41:52.134Z,51.32
2019-04-23T15:42:51.798Z,52.37
2019-04-23T15:43:53.237Z,52.67
2019-04-23T15:44:45.339Z,52.86
2019-04-23T15:45:45.680Z,52.86
2019-04-23T15:47:04.646Z,52.86
2019-04-23T15:48:55.806Z,52.69
2019-04-23T15:49:49.008Z,52.86
2019-04-23T15:50:43.980Z,52.89
2019-04-23T15:52:58.193Z,53.05
2019-04-23T15:53:42.340Z,53.44
2019-04-23T15:54:42.790Z,52.95
2019-04-23T15:55:49.186Z,52.95
2019-04-23T15:58:53.682Z,53.44
2019-04-23T15:59:47.905Z,53.34
2019-04-23T16:00:46.778Z,54.31
2019-04-23T16:01:37.338Z,54.31
2019-04-23T16:02:15.115Z,53.73
2019-04-23T16:03:17.430Z,54.31
2019-04-23T16:04:18.131Z,53.92
2019-04-23T16:05:17.023Z,53.73
2019-04-23T16:06:19.671Z,54.02
2019-04-23T16:07:32.563Z,54.21
2019-04-23T16:08:51.719Z,53.83
2019-04-23T16:09:50.346Z,54.60
2019-04-23T16:10:49.165Z,54.02
2019-04-23T16:12:41.677Z,54.31
2019-04-23T16:13:53.384Z,54.31
2019-04-23T16:14:49.687Z,54.50
2019-04-23T16:15:43.463Z,54.60
2019-04-23T16:16:47.769Z,54.57
2019-04-23T16:17:44.765Z,54.38
2019-04-23T16:18:55.542Z,54.66
2019-04-23T16:19:45.862Z,54.57
2019-04-23T16:20:47.324Z,54.96
2019-04-23T16:22:41.012Z,55.34
2019-04-23T16:23:45.927Z,55.36
2019-04-23T16:24:51.917Z,55.34
2019-04-23T16:25:45.679Z,55.34
2019-04-23T16:26:51.011Z,55.54
2019-04-23T16:27:45.650Z,55.05
2019-04-23T16:29:07.100Z,55.34
2019-04-23T16:29:57.173Z,55.54
2019-04-23T16:31:03.368Z,55.82